Time;durP1;ratioP1;P1;durP2;ratioP2;P2;SDS_P1;SDS_P2;PMS_P1;PMS_P2;Temp;Humidity;BMP_temperature;BMP_pressure;BME280_temperature;BME280_humidity;BME280_pressure;Samples;Min_cycle;Max_cycle;Signal;HPM_P1;HPM_P2
2021/04/23 00:01:41;;;;;;;11.80;3.57;;;5.10;94.50;;;;;;4961457;28;21007;-88
2021/04/23 00:04:25;;;;;;;8.63;3.70;;;5.00;94.60;;;;;;4961096;28;20584;-87
2021/04/23 00:06:58;;;;;;;14.77;3.67;;;5.00;94.60;;;;;;4977962;28;20394;-88
2021/04/23 00:09:35;;;;;;;7.17;4.10;;;5.00;94.70;;;;;;4977308;28;20405;-88
2021/04/23 00:12:11;;;;;;;10.10;4.50;;;4.90;94.90;;;;;;4960306;28;20416;-88
2021/04/23 00:14:52;;;;;;;7.70;3.87;;;4.90;95.00;;;;;;4961077;28;20413;-87
2021/04/23 00:17:18;;;;;;;11.07;4.10;;;4.90;95.00;;;;;;4978017;28;20402;-88
2021/04/23 00:19:45;;;;;;;10.83;4.37;;;4.90;95.10;;;;;;4978228;28;20397;-87
2021/04/23 00:22:11;;;;;;;8.90;4.30;;;4.80;95.30;;;;;;4961305;28;20422;-88
2021/04/23 00:24:37;;;;;;;8.30;3.67;;;4.80;95.40;;;;;;4970374;23;20581;-87
2021/04/23 00:27:04;;;;;;;7.43;3.80;;;4.80;95.50;;;;;;4958961;29;20918;-86
2021/04/23 00:29:30;;;;;;;12.00;4.80;;;4.70;95.70;;;;;;4957743;29;20841;-86
2021/04/23 00:34:42;;;;;;;12.40;5.30;;;4.60;96.20;;;;;;4959585;29;20302;-87
2021/04/23 00:37:08;;;;;;;10.77;4.50;;;4.60;96.30;;;;;;4959397;29;20415;-86
2021/04/23 00:39:35;;;;;;;12.30;5.37;;;4.50;96.40;;;;;;4959163;29;20422;-85
2021/04/23 00:42:02;;;;;;;15.80;6.50;;;4.50;96.50;;;;;;4959323;29;20422;-86
2021/04/23 00:44:27;;;;;;;7.00;4.70;;;4.50;96.70;;;;;;4958742;29;20458;-86
2021/04/23 00:46:53;;;;;;;12.37;5.80;;;4.50;96.80;;;;;;4958037;29;20430;-86
2021/04/23 00:49:19;;;;;;;11.80;4.33;;;4.50;96.80;;;;;;4957131;29;20167;-86
2021/04/23 00:51:53;;;;;;;16.50;5.60;;;4.50;96.70;;;;;;4956474;28;20211;-86
2021/04/23 00:54:19;;;;;;;16.43;5.23;;;4.50;96.70;;;;;;4957137;29;20591;-85
2021/04/23 00:56:45;;;;;;;11.87;4.67;;;4.50;96.70;;;;;;4957029;29;20419;-86
2021/04/23 00:59:12;;;;;;;12.73;4.13;;;4.50;96.90;;;;;;4957222;29;20415;-86
2021/04/23 01:01:43;;;;;;;14.60;4.67;;;4.50;96.90;;;;;;4955787;29;20175;-86
2021/04/23 01:04:14;;;;;;;9.97;4.90;;;4.40;97.00;;;;;;4955750;29;20847;-86
2021/04/23 01:06:41;;;;;;;9.17;4.60;;;4.40;97.10;;;;;;4956105;29;20505;-86
2021/04/23 01:09:18;;;;;;;13.40;4.40;;;4.40;97.30;;;;;;4956016;29;20419;-86
2021/04/23 01:11:44;;;;;;;18.33;4.53;;;4.40;97.30;;;;;;4956053;29;20494;-86
2021/04/23 01:14:10;;;;;;;15.30;4.47;;;4.30;97.30;;;;;;4958216;29;20447;-86
2021/04/23 01:16:36;;;;;;;10.80;4.83;;;4.30;97.30;;;;;;4958002;29;20462;-86
2021/04/23 01:19:05;;;;;;;12.70;5.10;;;4.30;97.30;;;;;;4958898;29;20441;-86
2021/04/23 01:21:32;;;;;;;13.10;4.70;;;4.20;97.30;;;;;;4959320;29;20791;-86
2021/04/23 01:24:00;;;;;;;26.03;6.03;;;4.20;97.30;;;;;;4970214;29;20485;-87
2021/04/23 01:26:32;;;;;;;8.83;4.70;;;4.20;97.30;;;;;;4974435;29;20411;-86
2021/04/23 01:28:59;;;;;;;15.77;5.13;;;4.20;97.30;;;;;;4972672;29;20413;-86
2021/04/23 01:31:29;;;;;;;14.50;4.83;;;4.20;97.30;;;;;;4956981;29;20792;-86
2021/04/23 01:34:00;;;;;;;10.60;5.07;;;4.10;97.30;;;;;;4956951;29;20439;-86
2021/04/23 01:36:26;;;;;;;10.30;5.17;;;4.10;97.30;;;;;;4956744;29;21012;-86
2021/04/23 01:38:52;;;;;;;7.60;4.43;;;4.10;97.30;;;;;;4956157;29;20461;-88
2021/04/23 01:41:19;;;;;;;24.00;5.37;;;4.10;97.30;;;;;;4957183;29;20179;-86
2021/04/23 01:43:47;;;;;;;15.27;5.13;;;4.20;97.30;;;;;;4974471;29;20482;-85
2021/04/23 01:46:13;;;;;;;14.30;5.40;;;4.20;97.30;;;;;;4976582;29;20414;-87
2021/04/23 01:48:39;;;;;;;12.10;6.00;;;4.20;97.30;;;;;;4975627;29;20764;-86
2021/04/23 01:51:07;;;;;;;10.67;4.70;;;4.20;97.30;;;;;;4963199;29;20415;-86
2021/04/23 01:53:33;;;;;;;20.07;6.10;;;4.30;97.30;;;;;;5002139;23;20498;-86
2021/04/23 01:55:59;;;;;;;13.73;5.47;;;4.30;97.30;;;;;;4928376;29;20416;-86
2021/04/23 01:58:25;;;;;;;11.77;5.00;;;4.30;97.30;;;;;;4927055;29;20274;-86
2021/04/23 02:00:51;;;;;;;18.97;4.87;;;4.30;97.30;;;;;;4926165;29;20412;-86
2021/04/23 02:18:43;;;;;;;12.30;6.03;;;4.40;97.30;;;;;;4918877;29;20483;-86
2021/04/23 02:21:10;;;;;;;18.00;5.47;;;4.30;97.30;;;;;;4918135;29;20439;-86
2021/04/23 02:23:36;;;;;;;11.53;6.50;;;4.30;97.30;;;;;;4917821;29;20476;-86
2021/04/23 02:26:03;;;;;;;12.50;6.57;;;4.30;97.30;;;;;;4918105;29;20413;-86
2021/04/23 02:28:29;;;;;;;16.57;7.10;;;4.30;97.30;;;;;;4918132;29;20420;-86
2021/04/23 02:31:00;;;;;;;17.07;6.13;;;4.40;97.30;;;;;;4918634;29;20417;-86
2021/04/23 02:33:26;;;;;;;13.97;6.37;;;4.40;97.30;;;;;;4917557;29;20208;-87
2021/04/23 02:35:55;;;;;;;14.40;6.27;;;4.40;97.30;;;;;;4918529;29;20431;-87
2021/04/23 02:38:21;;;;;;;20.00;6.30;;;4.40;97.30;;;;;;4926097;29;20442;-86
2021/04/23 02:40:47;;;;;;;13.87;6.17;;;4.50;97.30;;;;;;4930354;29;20431;-86
2021/04/23 02:58:38;;;;;;;18.20;6.97;;;4.50;97.30;;;;;;4935819;29;20475;-86
2021/04/23 03:01:11;;;;;;;23.33;6.87;;;4.50;97.30;;;;;;4920108;29;20451;-86
2021/04/23 03:03:37;;;;;;;20.17;7.53;;;4.40;97.30;;;;;;4920215;29;20547;-86
2021/04/23 03:06:06;;;;;;;15.87;7.40;;;4.50;97.30;;;;;;4918708;29;20931;-86
2021/04/23 03:08:32;;;;;;;19.90;7.17;;;4.50;97.30;;;;;;4934653;29;20604;-86
2021/04/23 03:11:11;;;;;;;22.47;6.63;;;4.50;97.30;;;;;;4918860;29;20482;-86
2021/04/23 03:13:42;;;;;;;20.90;7.80;;;4.50;97.30;;;;;;4918791;29;20473;-86
2021/04/23 03:16:08;;;;;;;16.00;6.73;;;4.50;97.30;;;;;;4936038;29;20424;-86
2021/04/23 03:18:37;;;;;;;17.50;7.40;;;4.50;97.30;;;;;;4919033;29;20989;-86
2021/04/23 03:21:05;;;;;;;20.07;7.00;;;4.60;97.30;;;;;;4919112;29;20430;-86
2021/04/23 03:23:31;;;;;;;23.17;7.00;;;4.60;97.30;;;;;;4919635;29;20467;-86
2021/04/23 03:26:04;;;;;;;16.60;7.80;;;4.60;97.30;;;;;;4920339;29;20447;-86
2021/04/23 03:28:31;;;;;;;18.47;6.77;;;4.60;97.30;;;;;;4920357;29;20499;-86
2021/04/23 03:30:56;;;;;;;16.37;6.90;;;4.60;97.30;;;;;;4920750;29;20459;-86
2021/04/23 03:33:22;;;;;;;20.77;7.27;;;4.70;97.30;;;;;;4920370;29;20439;-86
2021/04/23 03:35:55;;;;;;;19.70;7.63;;;4.70;97.30;;;;;;4936731;29;20674;-87
2021/04/23 03:38:23;;;;;;;18.33;6.40;;;4.70;97.30;;;;;;4919728;29;20420;-86
2021/04/23 03:40:49;;;;;;;21.27;6.80;;;4.70;97.30;;;;;;4919026;29;20426;-86
2021/04/23 03:43:16;;;;;;;19.93;7.43;;;4.70;97.30;;;;;;4919083;29;20467;-86
2021/04/23 03:45:42;;;;;;;28.20;7.97;;;4.70;97.30;;;;;;4919909;29;20804;-85
2021/04/23 03:48:09;;;;;;;26.37;7.83;;;4.70;97.30;;;;;;4921688;29;20942;-86
2021/04/23 03:50:37;;;;;;;20.50;8.17;;;4.70;97.30;;;;;;4919483;29;20412;-86
2021/04/23 03:53:08;;;;;;;18.40;7.70;;;4.70;97.30;;;;;;4919107;29;20454;-86
2021/04/23 03:55:38;;;;;;;18.07;7.37;;;4.70;97.30;;;;;;4918250;29;20415;-86
2021/04/23 03:58:05;;;;;;;20.67;7.60;;;4.70;97.30;;;;;;4917887;29;20531;-86
2021/04/23 04:00:40;;;;;;;14.57;7.23;;;4.70;97.30;;;;;;4918272;29;20908;-86
2021/04/23 04:03:08;;;;;;;22.63;8.07;;;4.70;97.30;;;;;;4935236;29;21079;-86
2021/04/23 04:05:34;;;;;;;28.93;8.00;;;4.70;97.30;;;;;;4918725;29;20420;-86
2021/04/23 04:08:00;;;;;;;24.00;7.90;;;4.70;97.30;;;;;;4919798;29;20419;-86
2021/04/23 04:10:26;;;;;;;15.93;6.33;;;4.70;97.30;;;;;;4918219;29;20419;-85
2021/04/23 04:12:52;;;;;;;23.40;8.70;;;4.70;97.30;;;;;;4935396;29;20475;-86
2021/04/23 04:15:18;;;;;;;17.20;7.70;;;4.70;97.30;;;;;;4919699;29;20926;-86
2021/04/23 04:17:44;;;;;;;18.47;7.80;;;4.70;97.30;;;;;;4919480;29;20218;-86
2021/04/23 04:20:12;;;;;;;19.73;7.80;;;4.70;97.30;;;;;;4919662;29;20328;-87
2021/04/23 04:22:39;;;;;;;20.40;7.67;;;4.70;97.30;;;;;;4920191;29;20215;-84
2021/04/23 04:25:06;;;;;;;15.90;6.03;;;4.70;97.30;;;;;;4920272;29;20416;-86
2021/04/23 04:27:32;;;;;;;26.23;7.33;;;4.80;97.30;;;;;;4923619;29;20420;-87
2021/04/23 04:29:58;;;;;;;16.73;7.30;;;4.70;97.30;;;;;;4923794;29;20426;-87
2021/04/23 04:32:24;;;;;;;20.70;7.23;;;4.80;97.30;;;;;;4922503;29;20184;-87
2021/04/23 04:34:50;;;;;;;21.10;7.40;;;4.80;97.30;;;;;;4922414;29;20308;-87
2021/04/23 04:37:15;;;;;;;21.43;6.90;;;4.80;97.30;;;;;;4922447;29;20420;-86
2021/04/23 04:39:41;;;;;;;23.27;8.33;;;4.80;97.30;;;;;;4922330;29;20176;-87
2021/04/23 04:42:07;;;;;;;16.73;8.10;;;4.80;97.30;;;;;;4939152;29;20764;-86
2021/04/23 04:44:34;;;;;;;18.27;7.77;;;4.80;97.30;;;;;;4922046;29;20254;-87
2021/04/23 04:47:01;;;;;;;18.97;6.80;;;4.80;97.30;;;;;;4922214;29;20452;-87
2021/04/23 04:49:26;;;;;;;15.77;7.37;;;4.80;97.30;;;;;;4920886;29;20455;-87
2021/04/23 04:51:53;;;;;;;21.00;7.50;;;4.80;97.30;;;;;;4921163;29;20462;-86
2021/04/23 04:54:19;;;;;;;21.70;8.07;;;4.80;97.30;;;;;;4920867;29;20204;-86
2021/04/23 04:56:44;;;;;;;19.77;7.07;;;4.80;97.30;;;;;;4938051;29;20966;-87
2021/04/23 04:59:10;;;;;;;16.17;7.40;;;4.80;97.30;;;;;;4921260;29;20183;-87
2021/04/23 05:01:35;;;;;;;15.60;6.60;;;4.80;97.30;;;;;;4920119;29;20662;-87
2021/04/23 05:04:01;;;;;;;17.87;7.07;;;4.80;97.30;;;;;;4938343;29;20215;-86
2021/04/23 05:06:27;;;;;;;19.30;6.57;;;4.80;97.30;;;;;;4921329;29;20264;-87
2021/04/23 05:08:52;;;;;;;16.90;6.97;;;4.80;97.30;;;;;;4921590;29;20180;-85
2021/04/23 05:11:18;;;;;;;18.60;6.57;;;4.80;97.30;;;;;;4922778;29;20236;-86
2021/04/23 05:13:44;;;;;;;21.10;7.00;;;4.80;97.30;;;;;;4922798;29;20211;-86
2021/04/23 05:16:09;;;;;;;16.13;7.17;;;4.90;97.30;;;;;;4940104;29;20510;-86
2021/04/23 05:18:35;;;;;;;20.73;6.93;;;4.90;97.30;;;;;;4939670;29;20266;-86
2021/04/23 05:21:01;;;;;;;15.97;7.00;;;4.90;97.30;;;;;;4939089;29;20180;-85
2021/04/23 05:23:27;;;;;;;17.73;5.77;;;5.00;97.30;;;;;;4956750;23;20265;-71
2021/04/23 05:25:53;;;;;;;14.80;5.47;;;5.00;97.30;;;;;;4974074;28;20674;-71
2021/04/23 05:28:18;;;;;;;16.33;6.30;;;5.10;97.30;;;;;;4972804;28;20182;-70
2021/04/23 05:30:45;;;;;;;18.17;6.93;;;5.10;97.30;;;;;;4972874;28;20999;-71
2021/04/23 05:33:11;;;;;;;16.37;6.43;;;5.20;97.30;;;;;;4972506;28;20201;-71
2021/04/23 05:35:40;;;;;;;15.30;6.33;;;5.10;97.30;;;;;;4954889;28;20426;-70
2021/04/23 05:38:06;;;;;;;16.67;6.67;;;5.10;97.30;;;;;;4954391;28;20418;-70
2021/04/23 05:40:37;;;;;;;15.30;6.20;;;5.00;97.30;;;;;;4972001;28;20414;-70
2021/04/23 05:43:07;;;;;;;22.03;7.80;;;5.00;97.30;;;;;;4971736;28;20817;-70
2021/04/23 05:45:34;;;;;;;18.23;7.33;;;5.00;97.30;;;;;;4955464;28;20426;-70
2021/04/23 05:48:00;;;;;;;13.93;6.07;;;5.00;97.30;;;;;;4973476;28;20410;-71
2021/04/23 05:50:26;;;;;;;19.27;8.10;;;5.10;97.30;;;;;;4955600;28;20422;-72
2021/04/23 05:52:53;;;;;;;22.00;6.70;;;5.10;97.30;;;;;;4973414;28;20418;-71
2021/04/23 05:55:25;;;;;;;20.53;6.70;;;5.20;97.30;;;;;;4955288;28;20433;-70
2021/04/23 05:57:56;;;;;;;20.60;6.90;;;5.20;97.30;;;;;;4973166;28;20553;-71
2021/04/23 06:00:24;;;;;;;17.80;6.60;;;5.30;97.30;;;;;;4972705;28;20503;-71
2021/04/23 06:02:50;;;;;;;13.90;6.97;;;5.30;97.30;;;;;;4955910;28;20461;-71
2021/04/23 06:05:17;;;;;;;13.30;6.80;;;5.40;97.30;;;;;;4955515;28;21144;-71
2021/04/23 06:07:43;;;;;;;35.33;10.87;;;5.50;97.30;;;;;;4955811;28;20957;-71
2021/04/23 06:10:11;;;;;;;25.10;8.20;;;5.50;97.30;;;;;;4955689;28;20418;-70
2021/04/23 06:12:37;;;;;;;23.27;6.40;;;5.60;97.30;;;;;;4955810;28;20440;-71
2021/04/23 06:15:05;;;;;;;13.37;5.67;;;5.70;97.30;;;;;;4955966;28;20414;-70
2021/04/23 06:17:31;;;;;;;14.90;4.93;;;5.80;97.30;;;;;;4972887;28;20167;-70
2021/04/23 06:19:57;;;;;;;14.83;5.10;;;5.90;97.30;;;;;;4955479;28;20505;-71
2021/04/23 06:22:23;;;;;;;20.50;4.50;;;6.00;97.30;;;;;;4955414;28;20261;-70
2021/04/23 06:24:49;;;;;;;6.63;4.40;;;6.10;97.30;;;;;;4955702;28;20474;-70
2021/04/23 06:27:16;;;;;;;13.53;4.93;;;6.20;97.20;;;;;;4955687;28;20421;-71
2021/04/23 06:29:42;;;;;;;10.30;3.93;;;6.30;97.20;;;;;;4955106;28;20484;-70
2021/04/23 06:32:08;;;;;;;8.17;4.00;;;6.40;96.90;;;;;;4987438;23;20430;-76
2021/04/23 06:34:34;;;;;;;9.63;4.50;;;6.40;96.20;;;;;;4953081;28;20501;-76
2021/04/23 06:37:00;;;;;;;12.57;5.00;;;6.50;96.40;;;;;;4972740;28;20739;-76
2021/04/23 06:39:26;;;;;;;11.40;4.93;;;6.50;96.00;;;;;;4955120;28;20186;-76
2021/04/23 06:41:52;;;;;;;17.17;5.10;;;6.60;96.10;;;;;;4955511;28;20741;-76
2021/04/23 06:44:18;;;;;;;11.10;4.73;;;6.70;95.70;;;;;;4955366;28;20532;-76
2021/04/23 06:46:44;;;;;;;12.10;4.97;;;6.70;95.20;;;;;;4953607;28;20182;-75
2021/04/23 06:49:12;;;;;;;16.77;6.00;;;6.80;94.80;;;;;;4953407;28;20422;-75
2021/04/23 06:51:38;;;;;;;10.10;4.00;;;6.90;94.30;;;;;;4972032;28;20445;-75
2021/04/23 06:54:05;;;;;;;13.80;5.47;;;6.90;94.20;;;;;;4972426;28;20457;-76
2021/04/23 06:56:31;;;;;;;7.20;3.83;;;6.90;94.00;;;;;;4972045;28;20414;-75
2021/04/23 06:58:57;;;;;;;20.07;4.43;;;6.90;93.90;;;;;;4954796;28;20425;-75
2021/04/23 07:01:23;;;;;;;14.97;5.10;;;7.00;93.70;;;;;;4954687;28;20446;-75
2021/04/23 07:03:48;;;;;;;13.30;4.57;;;7.10;93.60;;;;;;4954039;28;20241;-76
2021/04/23 07:06:14;;;;;;;13.10;5.03;;;7.20;93.50;;;;;;4970965;28;20171;-75
2021/04/23 07:08:40;;;;;;;10.07;4.53;;;7.20;93.20;;;;;;4971669;28;20182;-75
2021/04/23 07:11:06;;;;;;;7.47;4.10;;;7.20;93.20;;;;;;4953676;28;20198;-75
2021/04/23 07:13:32;;;;;;;11.37;5.27;;;7.30;93.20;;;;;;4954363;28;20426;-75
2021/04/23 07:15:58;;;;;;;15.53;4.67;;;7.40;93.10;;;;;;4954604;28;20935;-75
2021/04/23 07:18:24;;;;;;;13.37;4.60;;;7.40;93.20;;;;;;4953777;28;20429;-76
2021/04/23 07:20:49;;;;;;;10.20;4.10;;;7.40;92.80;;;;;;4954732;28;20508;-75
2021/04/23 07:23:15;;;;;;;13.50;5.13;;;7.40;92.70;;;;;;4954554;28;20300;-76
2021/04/23 07:25:41;;;;;;;9.20;4.80;;;7.50;92.40;;;;;;4954352;28;20196;-75
2021/04/23 07:28:08;;;;;;;10.17;4.90;;;7.50;92.30;;;;;;4954538;28;20237;-76
2021/04/23 07:30:35;;;;;;;10.10;4.63;;;7.60;91.80;;;;;;4954783;28;20461;-76
2021/04/23 07:33:04;;;;;;;11.40;4.43;;;7.60;91.80;;;;;;4954387;28;20476;-75
2021/04/23 07:35:29;;;;;;;12.57;4.47;;;7.60;92.40;;;;;;4953928;28;20429;-75
2021/04/23 07:37:59;;;;;;;6.30;3.70;;;7.60;91.50;;;;;;4972085;28;20414;-76
2021/04/23 07:40:26;;;;;;;12.83;4.40;;;7.60;91.10;;;;;;4954097;28;20178;-75
2021/04/23 07:42:52;;;;;;;11.87;4.87;;;7.60;91.10;;;;;;4972284;28;20460;-76
2021/04/23 07:45:19;;;;;;;9.13;4.27;;;7.70;91.60;;;;;;4954228;28;20413;-76
2021/04/23 07:47:46;;;;;;;10.13;4.50;;;7.90;91.20;;;;;;4954405;28;20426;-76
2021/04/23 07:50:14;;;;;;;11.50;3.73;;;8.00;90.70;;;;;;4954369;28;20493;-74
2021/04/23 07:52:40;;;;;;;9.10;3.57;;;7.90;89.90;;;;;;4954439;28;20441;-74
2021/04/23 07:55:08;;;;;;;6.53;3.83;;;7.90;90.10;;;;;;4954506;28;20949;-75
2021/04/23 07:57:35;;;;;;;8.60;4.47;;;8.00;89.90;;;;;;4954351;28;20417;-75
2021/04/23 08:00:01;;;;;;;16.33;4.70;;;7.90;90.10;;;;;;4955633;28;20421;-75
2021/04/23 08:02:27;;;;;;;10.47;5.40;;;7.90;90.90;;;;;;4957690;28;20438;-75
2021/04/23 08:04:52;;;;;;;8.27;5.00;;;7.90;90.50;;;;;;4958080;28;20310;-75
2021/04/23 08:07:18;;;;;;;11.50;4.47;;;7.80;91.10;;;;;;4975577;28;20246;-75
2021/04/23 08:09:44;;;;;;;13.73;4.47;;;7.80;91.10;;;;;;4958294;28;20221;-75
2021/04/23 08:12:11;;;;;;;16.10;4.80;;;7.90;91.50;;;;;;4958086;28;20685;-74
2021/04/23 08:14:37;;;;;;;13.83;5.00;;;7.90;91.60;;;;;;4957363;28;20206;-75
2021/04/23 08:17:04;;;;;;;11.90;4.07;;;7.90;91.50;;;;;;4974987;28;20410;-75
2021/04/23 08:19:29;;;;;;;10.40;4.90;;;7.90;90.90;;;;;;4974935;28;20174;-75
2021/04/23 08:21:55;;;;;;;15.10;5.27;;;7.80;91.00;;;;;;4958181;28;20473;-76
2021/04/23 08:24:21;;;;;;;11.60;4.40;;;7.80;91.20;;;;;;4975042;28;20205;-75
2021/04/23 08:26:47;;;;;;;11.67;5.50;;;7.90;91.10;;;;;;4957580;28;20237;-75
2021/04/23 08:29:13;;;;;;;14.03;4.17;;;7.90;90.40;;;;;;4957575;28;20225;-75
2021/04/23 08:31:40;;;;;;;11.93;4.87;;;7.90;90.40;;;;;;4975146;28;20430;-76
2021/04/23 08:34:07;;;;;;;7.60;4.13;;;7.80;90.40;;;;;;4957097;28;20497;-76
2021/04/23 08:36:33;;;;;;;14.63;5.30;;;7.90;90.70;;;;;;4975051;28;20468;-76
2021/04/23 08:38:59;;;;;;;9.87;4.80;;;7.90;90.10;;;;;;4975183;28;20414;-76
2021/04/23 08:41:25;;;;;;;12.57;4.60;;;7.90;89.60;;;;;;4957105;28;20194;-76
2021/04/23 08:43:50;;;;;;;7.93;4.13;;;8.00;88.80;;;;;;4957252;28;20453;-76
2021/04/23 08:46:16;;;;;;;7.13;4.20;;;8.20;87.90;;;;;;4957541;28;20237;-77
2021/04/23 08:48:42;;;;;;;8.70;5.37;;;8.20;86.20;;;;;;4974631;28;20516;-76
2021/04/23 08:51:08;;;;;;;9.10;4.57;;;8.30;86.40;;;;;;4957454;28;20205;-76
2021/04/23 08:53:35;;;;;;;11.17;4.20;;;8.40;85.60;;;;;;4957399;28;20422;-76
2021/04/23 08:56:02;;;;;;;17.50;5.00;;;8.30;86.30;;;;;;4957106;28;20524;-76
2021/04/23 08:58:28;;;;;;;10.60;4.00;;;8.30;86.20;;;;;;4956986;28;20418;-76
2021/04/23 09:00:54;;;;;;;10.43;4.10;;;8.30;86.90;;;;;;4957287;28;20450;-76
2021/04/23 09:03:22;;;;;;;8.90;5.03;;;8.40;86.20;;;;;;4957044;28;20875;-76
2021/04/23 09:06:07;;;;;;;9.00;4.83;;;8.60;86.40;;;;;;4974329;28;20253;-76
2021/04/23 09:08:35;;;;;;;12.73;4.13;;;8.80;85.90;;;;;;4957165;28;20409;-76
2021/04/23 09:11:14;;;;;;;13.00;6.80;;;8.90;85.70;;;;;;4956627;28;20441;-77
2021/04/23 09:13:54;;;;;;;18.53;5.00;;;8.90;86.70;;;;;;4957094;28;20402;-76
2021/04/23 09:16:23;;;;;;;11.23;4.77;;;8.90;86.30;;;;;;4956950;28;20425;-77
2021/04/23 09:18:49;;;;;;;9.40;4.80;;;8.80;86.80;;;;;;4956983;28;20421;-76
2021/04/23 09:21:15;;;;;;;9.30;4.80;;;8.80;86.80;;;;;;4956833;28;20442;-77
2021/04/23 09:23:52;;;;;;;8.73;4.93;;;8.50;87.70;;;;;;4956849;28;20249;-76
2021/04/23 09:26:34;;;;;;;8.53;5.00;;;8.30;88.40;;;;;;4956730;28;20445;-76
2021/04/23 09:29:01;;;;;;;13.23;7.03;;;8.30;89.00;;;;;;4956732;28;20414;-76
2021/04/23 09:31:33;;;;;;;10.17;5.43;;;8.40;89.40;;;;;;4956997;28;20809;-74
2021/04/23 09:34:05;;;;;;;15.90;5.30;;;8.60;89.50;;;;;;4956238;28;20878;-75
2021/04/23 09:36:34;;;;;;;10.20;5.30;;;8.80;87.90;;;;;;4956597;28;20417;-76
2021/04/23 09:39:19;;;;;;;12.10;5.50;;;8.90;86.20;;;;;;4956826;28;20449;-77
2021/04/23 09:41:54;;;;;;;9.43;4.87;;;8.80;86.80;;;;;;4956463;28;20448;-76
2021/04/23 09:44:41;;;;;;;11.70;5.30;;;8.60;86.90;;;;;;4956217;28;21003;-77
2021/04/23 09:47:13;;;;;;;12.77;5.30;;;8.50;88.00;;;;;;4956753;28;20406;-77
2021/04/23 09:49:50;;;;;;;10.60;5.00;;;8.40;88.60;;;;;;4956307;28;20417;-77
2021/04/23 09:52:16;;;;;;;9.93;5.20;;;8.40;88.70;;;;;;4956167;28;20438;-75
2021/04/23 09:54:53;;;;;;;12.20;6.57;;;8.40;88.40;;;;;;4974054;28;20787;-78
2021/04/23 09:57:33;;;;;;;12.20;5.57;;;8.50;89.10;;;;;;4956601;28;20428;-78
2021/04/23 10:00:05;;;;;;;9.87;5.30;;;8.60;88.00;;;;;;4956290;28;20422;-77
2021/04/23 10:02:31;;;;;;;10.43;5.10;;;8.80;87.40;;;;;;4955971;28;20438;-77
2021/04/23 10:04:58;;;;;;;12.33;6.47;;;8.80;87.20;;;;;;4955984;28;20421;-78
2021/04/23 10:07:28;;;;;;;14.03;5.70;;;8.70;86.80;;;;;;4956169;28;20326;-78
2021/04/23 10:10:08;;;;;;;11.10;6.30;;;8.70;87.60;;;;;;4956293;28;20406;-78
2021/04/23 10:12:48;;;;;;;13.77;5.13;;;8.90;88.10;;;;;;4955841;28;20450;-77
2021/04/23 10:15:24;;;;;;;14.33;5.00;;;9.00;88.20;;;;;;4955897;28;20416;-77
2021/04/23 10:17:59;;;;;;;30.23;6.47;;;9.10;87.80;;;;;;4956185;28;20410;-78
2021/04/23 10:20:27;;;;;;;15.50;5.40;;;9.10;86.90;;;;;;4973274;28;20426;-76
2021/04/23 10:22:55;;;;;;;15.27;6.40;;;8.90;87.40;;;;;;4955624;28;20484;-77
2021/04/23 10:25:22;;;;;;;11.67;5.20;;;8.90;87.60;;;;;;4955524;28;20418;-75
2021/04/23 10:27:49;;;;;;;20.07;6.27;;;9.00;87.30;;;;;;4955762;28;20414;-78
2021/04/23 10:30:15;;;;;;;15.67;6.83;;;9.00;87.00;;;;;;4955734;28;20421;-77
2021/04/23 10:32:42;;;;;;;9.70;5.90;;;9.00;87.70;;;;;;4955606;28;20548;-77
2021/04/23 10:35:08;;;;;;;15.07;6.83;;;9.10;87.80;;;;;;4955374;28;20417;-77
2021/04/23 10:37:34;;;;;;;15.30;7.50;;;9.10;87.10;;;;;;4955234;28;20425;-76
2021/04/23 10:40:01;;;;;;;13.13;6.40;;;9.00;87.20;;;;;;4955362;28;20418;-77
2021/04/23 10:42:49;;;;;;;13.70;7.60;;;9.00;87.00;;;;;;4955260;28;20277;-78
2021/04/23 10:45:24;;;;;;;13.43;7.50;;;9.00;88.40;;;;;;4972788;28;20430;-75
2021/04/23 10:47:51;;;;;;;14.27;7.00;;;9.10;87.60;;;;;;4955595;28;20917;-77
2021/04/23 10:50:20;;;;;;;10.97;7.00;;;9.00;87.20;;;;;;4955229;28;20414;-77
2021/04/23 10:53:03;;;;;;;17.30;7.17;;;9.00;87.00;;;;;;4955254;28;20422;-76
2021/04/23 10:55:37;;;;;;;12.83;7.07;;;9.00;87.20;;;;;;4955095;28;20417;-75
2021/04/23 10:58:03;;;;;;;15.80;7.37;;;9.00;87.40;;;;;;4955319;28;20497;-77
2021/04/23 11:00:34;;;;;;;18.97;7.20;;;9.00;87.60;;;;;;4955056;28;20414;-77
2021/04/23 11:03:24;;;;;;;17.17;8.37;;;8.90;87.80;;;;;;4972410;28;20481;-77
2021/04/23 11:05:57;;;;;;;10.70;7.00;;;9.00;87.80;;;;;;4972213;28;20406;-76
2021/04/23 11:08:24;;;;;;;15.83;8.50;;;9.10;87.10;;;;;;4954828;28;20996;-77
2021/04/23 11:11:02;;;;;;;13.27;7.30;;;9.10;87.80;;;;;;4955078;28;20525;-76
2021/04/23 11:13:33;;;;;;;19.67;7.90;;;9.20;86.90;;;;;;4955156;28;20421;-76
2021/04/23 11:16:21;;;;;;;12.73;7.57;;;9.40;86.80;;;;;;4954625;28;20413;-76
2021/04/23 11:18:54;;;;;;;17.40;7.47;;;9.70;85.60;;;;;;4955708;28;20962;-78
2021/04/23 11:21:32;;;;;;;15.13;7.53;;;10.00;84.80;;;;;;4955473;28;20441;-77
2021/04/23 11:24:16;;;;;;;12.90;6.60;;;10.10;83.20;;;;;;4954760;28;20537;-77
2021/04/23 11:27:07;;;;;;;12.40;6.43;;;10.50;84.40;;;;;;4954863;28;20439;-76
2021/04/23 11:29:37;;;;;;;14.47;6.87;;;10.60;83.40;;;;;;4954665;28;20782;-77
2021/04/23 11:32:15;;;;;;;14.00;7.13;;;10.60;82.50;;;;;;4972271;28;20445;-77
2021/04/23 11:34:41;;;;;;;12.30;6.73;;;10.70;82.10;;;;;;4935283;29;20438;-77
2021/04/23 11:37:30;;;;;;;14.90;6.53;;;10.70;82.00;;;;;;4935710;29;20846;-78
2021/04/23 11:40:17;;;;;;;13.00;7.03;;;10.70;81.90;;;;;;4935591;29;20175;-76
2021/04/23 11:42:49;;;;;;;13.50;6.47;;;10.70;83.10;;;;;;4935418;29;20418;-77
2021/04/23 11:45:19;;;;;;;19.97;6.80;;;10.90;84.10;;;;;;4935526;29;20474;-77
2021/04/23 11:47:52;;;;;;;16.40;7.23;;;11.30;82.70;;;;;;4952444;29;20518;-77
2021/04/23 11:50:28;;;;;;;13.80;6.13;;;11.50;81.90;;;;;;4935221;29;20418;-78
2021/04/23 11:53:08;;;;;;;11.40;7.40;;;11.70;82.40;;;;;;4936202;29;20426;-76
2021/04/23 11:55:37;;;;;;;13.40;6.63;;;11.50;81.30;;;;;;4936754;29;20910;-76
2021/04/23 11:58:05;;;;;;;13.37;7.27;;;11.10;80.70;;;;;;4936878;29;20510;-77
2021/04/23 12:00:31;;;;;;;13.53;6.80;;;10.90;80.80;;;;;;4935480;29;20414;-78
2021/04/23 12:03:05;;;;;;;13.33;6.93;;;11.00;80.90;;;;;;4935548;29;20459;-78
2021/04/23 12:05:39;;;;;;;10.70;6.73;;;11.40;80.90;;;;;;4936131;29;20414;-78
2021/04/23 12:08:17;;;;;;;16.90;6.77;;;12.00;81.10;;;;;;4936967;29;20419;-79
2021/04/23 12:10:52;;;;;;;11.80;6.77;;;12.10;78.60;;;;;;4937302;29;20457;-78
2021/04/23 12:13:24;;;;;;;17.53;7.40;;;12.20;79.00;;;;;;4936891;29;20438;-78
2021/04/23 12:15:52;;;;;;;12.80;6.50;;;12.30;79.00;;;;;;4955162;29;20399;-78
2021/04/23 12:18:18;;;;;;;12.60;6.83;;;12.70;77.40;;;;;;4937664;29;20414;-79
2021/04/23 12:21:02;;;;;;;15.40;7.10;;;13.00;77.50;;;;;;4938784;29;20461;-78
2021/04/23 12:23:30;;;;;;;14.17;6.00;;;13.40;78.90;;;;;;4936465;29;20257;-78
2021/04/23 12:26:00;;;;;;;15.30;6.53;;;13.50;76.90;;;;;;4937125;29;20415;-78
2021/04/23 12:28:26;;;;;;;16.50;6.87;;;13.30;79.80;;;;;;4937791;29;20430;-79
2021/04/23 12:30:55;;;;;;;15.70;7.03;;;12.90;79.20;;;;;;4937934;29;20445;-78
2021/04/23 12:35:51;;;;;;;12.20;7.10;;;12.60;79.30;;;;;;4931756;29;20538;-70
2021/04/23 12:38:35;;;;;;;12.43;7.00;;;12.70;78.90;;;;;;4915522;29;20915;-68
2021/04/23 12:41:11;;;;;;;12.70;7.33;;;12.90;78.10;;;;;;4915698;29;20522;-71
2021/04/23 12:43:40;;;;;;;12.83;6.83;;;12.70;77.50;;;;;;4915421;29;20819;-68
2021/04/23 12:46:06;;;;;;;11.03;6.80;;;13.10;78.70;;;;;;4915621;29;20878;-70
2021/04/23 12:48:32;;;;;;;22.23;6.70;;;13.60;78.20;;;;;;4918342;29;20836;-67
2021/04/23 12:50:58;;;;;;;11.60;5.67;;;13.80;76.20;;;;;;4935865;29;20248;-71
2021/04/23 12:53:24;;;;;;;15.80;5.80;;;13.80;74.90;;;;;;4934692;29;20447;-70
2021/04/23 12:55:53;;;;;;;14.80;5.90;;;14.10;73.10;;;;;;4935495;29;20184;-70
2021/04/23 12:58:19;;;;;;;9.23;6.20;;;14.20;73.00;;;;;;4935827;29;20480;-70
2021/04/23 13:00:45;;;;;;;10.80;5.97;;;13.90;73.50;;;;;;4931860;29;20435;-70
2021/04/23 13:03:11;;;;;;;13.90;6.77;;;13.90;74.10;;;;;;4935733;29;20912;-68
2021/04/23 13:05:42;;;;;;;13.07;6.10;;;14.10;76.00;;;;;;4935772;29;20923;-70
2021/04/23 13:08:08;;;;;;;12.30;6.50;;;14.20;74.90;;;;;;4934146;29;20774;-71
2021/04/23 13:10:46;;;;;;;9.00;5.87;;;14.20;75.50;;;;;;4918171;29;21318;-72
2021/04/23 13:13:14;;;;;;;14.10;6.83;;;14.10;74.50;;;;;;4918640;29;20495;-75
2021/04/23 13:15:43;;;;;;;10.10;6.10;;;14.40;74.60;;;;;;4914607;29;20973;-71
2021/04/23 13:18:22;;;;;;;13.70;6.33;;;14.40;73.90;;;;;;4933499;29;20424;-74
2021/04/23 13:21:05;;;;;;;12.67;5.63;;;14.40;72.90;;;;;;4908635;29;20845;-70
2021/04/23 13:23:38;;;;;;;14.67;6.53;;;14.50;72.30;;;;;;4932170;29;20479;-73
2021/04/23 13:26:09;;;;;;;10.77;5.40;;;14.40;72.00;;;;;;4935718;29;20416;-71
2021/04/23 13:28:42;;;;;;;10.97;5.77;;;14.60;73.00;;;;;;4919225;29;20499;-78
2021/04/23 13:31:15;;;;;;;9.47;5.30;;;14.80;74.00;;;;;;4934494;29;20442;-73